sensor_id;sensor_type;location;lat;lon;timestamp;temperature;humidity
25436;DHT22;13363;52.772;-3.890;2023-07-09T00:02:14;14.00;99.90
25436;DHT22;13363;52.772;-3.890;2023-07-09T00:04:40;13.90;99.90
25436;DHT22;13363;52.772;-3.890;2023-07-09T00:07:33;13.90;99.90
25436;DHT22;13363;52.772;-3.890;2023-07-09T00:09:59;13.90;99.90
25436;DHT22;13363;52.772;-3.890;2023-07-09T00:12:25;13.80;99.90
25436;DHT22;13363;52.772;-3.890;2023-07-09T00:17:30;13.80;99.90
25436;DHT22;13363;52.772;-3.890;2023-07-09T00:19:57;13.70;99.90
25436;DHT22;13363;52.772;-3.890;2023-07-09T00:22:23;13.70;99.90
25436;DHT22;13363;52.772;-3.890;2023-07-09T00:24:52;13.60;99.90
25436;DHT22;13363;52.772;-3.890;2023-07-09T00:27:24;13.50;99.90
25436;DHT22;13363;52.772;-3.890;2023-07-09T00:29:51;13.50;99.90
25436;DHT22;13363;52.772;-3.890;2023-07-09T00:32:20;13.50;99.90
25436;DHT22;13363;52.772;-3.890;2023-07-09T00:34:50;13.50;99.90
25436;DHT22;13363;52.772;-3.890;2023-07-09T00:37:19;13.40;99.90
25436;DHT22;13363;52.772;-3.890;2023-07-09T00:39:46;13.30;99.90
25436;DHT22;13363;52.772;-3.890;2023-07-09T00:42:18;13.30;99.90
25436;DHT22;13363;52.772;-3.890;2023-07-09T00:44:45;13.30;99.90
25436;DHT22;13363;52.772;-3.890;2023-07-09T00:49:47;13.30;99.90
25436;DHT22;13363;52.772;-3.890;2023-07-09T00:52:38;13.30;99.90
25436;DHT22;13363;52.772;-3.890;2023-07-09T00:55:09;13.20;99.90
25436;DHT22;13363;52.772;-3.890;2023-07-09T00:57:38;13.20;99.90
25436;DHT22;13363;52.772;-3.890;2023-07-09T01:00:10;13.20;99.90
25436;DHT22;13363;52.772;-3.890;2023-07-09T01:02:42;13.00;99.90
25436;DHT22;13363;52.772;-3.890;2023-07-09T01:05:11;13.00;99.90
25436;DHT22;13363;52.772;-3.890;2023-07-09T01:07:38;13.00;99.90
25436;DHT22;13363;52.772;-3.890;2023-07-09T01:10:05;13.00;99.90
25436;DHT22;13363;52.772;-3.890;2023-07-09T01:12:31;13.00;99.90
25436;DHT22;13363;52.772;-3.890;2023-07-09T01:14:57;12.90;99.90
25436;DHT22;13363;52.772;-3.890;2023-07-09T01:17:28;12.90;99.90
25436;DHT22;13363;52.772;-3.890;2023-07-09T01:19:55;12.80;99.90
25436;DHT22;13363;52.772;-3.890;2023-07-09T01:22:22;12.80;99.90
25436;DHT22;13363;52.772;-3.890;2023-07-09T01:24:53;12.80;99.90
25436;DHT22;13363;52.772;-3.890;2023-07-09T01:27:23;12.80;99.90
25436;DHT22;13363;52.772;-3.890;2023-07-09T01:29:53;12.70;99.90
25436;DHT22;13363;52.772;-3.890;2023-07-09T01:32:20;12.70;99.90
25436;DHT22;13363;52.772;-3.890;2023-07-09T01:34:49;12.60;99.90
25436;DHT22;13363;52.772;-3.890;2023-07-09T01:37:21;12.60;99.90
25436;DHT22;13363;52.772;-3.890;2023-07-09T01:39:48;12.50;99.90
25436;DHT22;13363;52.772;-3.890;2023-07-09T01:42:16;12.50;99.90
25436;DHT22;13363;52.772;-3.890;2023-07-09T01:44:44;12.60;99.90
25436;DHT22;13363;52.772;-3.890;2023-07-09T01:52:06;12.50;99.90
25436;DHT22;13363;52.772;-3.890;2023-07-09T01:57:27;12.40;99.90
25436;DHT22;13363;52.772;-3.890;2023-07-09T02:00:08;12.40;99.90
25436;DHT22;13363;52.772;-3.890;2023-07-09T02:02:39;12.30;99.90
25436;DHT22;13363;52.772;-3.890;2023-07-09T02:05:08;12.30;99.90
25436;DHT22;13363;52.772;-3.890;2023-07-09T02:10:01;12.30;99.90
25436;DHT22;13363;52.772;-3.890;2023-07-09T02:12:27;12.20;99.90
25436;DHT22;13363;52.772;-3.890;2023-07-09T02:14:53;12.30;99.90
25436;DHT22;13363;52.772;-3.890;2023-07-09T02:17:19;12.30;99.90
25436;DHT22;13363;52.772;-3.890;2023-07-09T02:19:44;12.30;99.90
25436;DHT22;13363;52.772;-3.890;2023-07-09T02:24:37;12.30;99.90
25436;DHT22;13363;52.772;-3.890;2023-07-09T02:27:08;12.20;99.90
25436;DHT22;13363;52.772;-3.890;2023-07-09T02:29:36;12.30;99.90
25436;DHT22;13363;52.772;-3.890;2023-07-09T02:34:31;12.20;99.90
25436;DHT22;13363;52.772;-3.890;2023-07-09T02:36:58;12.20;99.90
25436;DHT22;13363;52.772;-3.890;2023-07-09T02:41:51;12.20;99.90
25436;DHT22;13363;52.772;-3.890;2023-07-09T02:44:17;12.10;99.90
25436;DHT22;13363;52.772;-3.890;2023-07-09T02:49:11;12.10;99.90
25436;DHT22;13363;52.772;-3.890;2023-07-09T02:51:38;12.10;99.90
25436;DHT22;13363;52.772;-3.890;2023-07-09T03:06:20;12.00;99.90
25436;DHT22;13363;52.772;-3.890;2023-07-09T03:08:46;12.00;99.90
25436;DHT22;13363;52.772;-3.890;2023-07-09T03:11:13;12.00;99.90
25436;DHT22;13363;52.772;-3.890;2023-07-09T03:16:06;12.00;99.90
25436;DHT22;13363;52.772;-3.890;2023-07-09T03:20:59;11.90;99.90
25436;DHT22;13363;52.772;-3.890;2023-07-09T03:25:51;11.90;99.90
25436;DHT22;13363;52.772;-3.890;2023-07-09T03:28:17;11.90;99.90
25436;DHT22;13363;52.772;-3.890;2023-07-09T03:30:45;11.80;99.90
25436;DHT22;13363;52.772;-3.890;2023-07-09T03:33:14;11.80;99.90
25436;DHT22;13363;52.772;-3.890;2023-07-09T03:38:08;11.80;99.90
25436;DHT22;13363;52.772;-3.890;2023-07-09T03:40:34;11.80;99.90
25436;DHT22;13363;52.772;-3.890;2023-07-09T03:47:53;11.70;99.90
25436;DHT22;13363;52.772;-3.890;2023-07-09T03:50:18;11.60;99.90
25436;DHT22;13363;52.772;-3.890;2023-07-09T04:00:04;11.50;99.90
25436;DHT22;13363;52.772;-3.890;2023-07-09T04:02:30;11.50;99.90
25436;DHT22;13363;52.772;-3.890;2023-07-09T04:04:56;11.50;99.90
25436;DHT22;13363;52.772;-3.890;2023-07-09T04:09:48;11.60;99.90
25436;DHT22;13363;52.772;-3.890;2023-07-09T04:12:14;11.50;99.90
25436;DHT22;13363;52.772;-3.890;2023-07-09T04:14:40;11.50;99.90
25436;DHT22;13363;52.772;-3.890;2023-07-09T04:19:32;11.60;99.90
25436;DHT22;13363;52.772;-3.890;2023-07-09T04:24:24;11.50;99.90
25436;DHT22;13363;52.772;-3.890;2023-07-09T04:26:53;11.50;99.90
25436;DHT22;13363;52.772;-3.890;2023-07-09T04:29:25;11.40;99.90
25436;DHT22;13363;52.772;-3.890;2023-07-09T04:34:17;11.40;99.90
25436;DHT22;13363;52.772;-3.890;2023-07-09T04:36:43;11.40;99.90
25436;DHT22;13363;52.772;-3.890;2023-07-09T04:39:08;11.40;99.90
25436;DHT22;13363;52.772;-3.890;2023-07-09T04:41:34;11.40;99.90
25436;DHT22;13363;52.772;-3.890;2023-07-09T04:44:00;11.40;99.90
25436;DHT22;13363;52.772;-3.890;2023-07-09T04:48:52;11.50;99.90
25436;DHT22;13363;52.772;-3.890;2023-07-09T04:51:18;11.40;99.90
25436;DHT22;13363;52.772;-3.890;2023-07-09T05:10:50;11.40;99.90
25436;DHT22;13363;52.772;-3.890;2023-07-09T05:15:45;11.40;99.90
25436;DHT22;13363;52.772;-3.890;2023-07-09T05:18:12;11.50;99.90
25436;DHT22;13363;52.772;-3.890;2023-07-09T05:20:39;11.50;99.90
25436;DHT22;13363;52.772;-3.890;2023-07-09T05:27:58;11.60;99.90
25436;DHT22;13363;52.772;-3.890;2023-07-09T05:30:23;11.50;99.90
25436;DHT22;13363;52.772;-3.890;2023-07-09T05:32:49;11.50;99.90
25436;DHT22;13363;52.772;-3.890;2023-07-09T05:35:15;11.50;99.90
25436;DHT22;13363;52.772;-3.890;2023-07-09T05:40:08;11.50;99.90
25436;DHT22;13363;52.772;-3.890;2023-07-09T05:52:21;11.60;99.90
25436;DHT22;13363;52.772;-3.890;2023-07-09T05:54:49;11.60;99.90
25436;DHT22;13363;52.772;-3.890;2023-07-09T06:02:16;11.80;99.90
25436;DHT22;13363;52.772;-3.890;2023-07-09T06:07:09;11.90;99.90
25436;DHT22;13363;52.772;-3.890;2023-07-09T06:09:35;12.10;99.90
25436;DHT22;13363;52.772;-3.890;2023-07-09T06:12:02;12.30;99.90
25436;DHT22;13363;52.772;-3.890;2023-07-09T06:24:13;12.60;99.90
25436;DHT22;13363;52.772;-3.890;2023-07-09T06:26:39;13.10;99.90
25436;DHT22;13363;52.772;-3.890;2023-07-09T06:29:05;13.90;99.90
25436;DHT22;13363;52.772;-3.890;2023-07-09T06:36:23;16.30;99.90
25436;DHT22;13363;52.772;-3.890;2023-07-09T06:38:49;16.90;99.90
25436;DHT22;13363;52.772;-3.890;2023-07-09T06:41:15;18.30;99.90
25436;DHT22;13363;52.772;-3.890;2023-07-09T06:43:42;18.30;99.90
25436;DHT22;13363;52.772;-3.890;2023-07-09T06:46:11;19.10;99.90
25436;DHT22;13363;52.772;-3.890;2023-07-09T06:51:03;19.20;99.90
25436;DHT22;13363;52.772;-3.890;2023-07-09T06:55:56;18.60;99.90
25436;DHT22;13363;52.772;-3.890;2023-07-09T06:58:26;17.60;99.90
25436;DHT22;13363;52.772;-3.890;2023-07-09T07:00:54;17.60;99.90
25436;DHT22;13363;52.772;-3.890;2023-07-09T07:03:21;17.20;99.90
25436;DHT22;13363;52.772;-3.890;2023-07-09T07:05:50;18.30;99.90
25436;DHT22;13363;52.772;-3.890;2023-07-09T07:08:18;18.30;99.90
25436;DHT22;13363;52.772;-3.890;2023-07-09T07:10:47;18.20;99.90
25436;DHT22;13363;52.772;-3.890;2023-07-09T07:13:13;18.20;99.90
25436;DHT22;13363;52.772;-3.890;2023-07-09T07:15:39;18.00;99.90
25436;DHT22;13363;52.772;-3.890;2023-07-09T07:18:06;17.60;99.90
25436;DHT22;13363;52.772;-3.890;2023-07-09T07:22:59;18.40;99.90
25436;DHT22;13363;52.772;-3.890;2023-07-09T07:30:19;18.80;99.90
25436;DHT22;13363;52.772;-3.890;2023-07-09T07:32:47;18.90;99.90
25436;DHT22;13363;52.772;-3.890;2023-07-09T07:35:13;18.80;99.90
25436;DHT22;13363;52.772;-3.890;2023-07-09T07:37:40;18.80;99.90
25436;DHT22;13363;52.772;-3.890;2023-07-09T07:40:08;19.20;99.90
25436;DHT22;13363;52.772;-3.890;2023-07-09T07:42:34;19.20;99.90
25436;DHT22;13363;52.772;-3.890;2023-07-09T07:45:00;19.40;99.90
25436;DHT22;13363;52.772;-3.890;2023-07-09T07:47:27;19.30;99.90
25436;DHT22;13363;52.772;-3.890;2023-07-09T07:49:53;19.70;99.90
25436;DHT22;13363;52.772;-3.890;2023-07-09T07:52:19;20.90;99.90
25436;DHT22;13363;52.772;-3.890;2023-07-09T07:54:45;22.10;99.90
25436;DHT22;13363;52.772;-3.890;2023-07-09T07:57:12;22.70;99.90
25436;DHT22;13363;52.772;-3.890;2023-07-09T07:59:39;23.10;99.90
25436;DHT22;13363;52.772;-3.890;2023-07-09T08:02:09;23.60;99.90
25436;DHT22;13363;52.772;-3.890;2023-07-09T08:07:02;22.60;99.90
25436;DHT22;13363;52.772;-3.890;2023-07-09T08:09:28;21.30;99.90
25436;DHT22;13363;52.772;-3.890;2023-07-09T08:11:55;21.30;99.90
25436;DHT22;13363;52.772;-3.890;2023-07-09T08:14:21;21.20;99.90
25436;DHT22;13363;52.772;-3.890;2023-07-09T08:16:47;21.20;99.90
25436;DHT22;13363;52.772;-3.890;2023-07-09T08:19:13;21.30;99.90
25436;DHT22;13363;52.772;-3.890;2023-07-09T08:21:39;21.10;99.90
25436;DHT22;13363;52.772;-3.890;2023-07-09T08:36:17;25.30;99.90
25436;DHT22;13363;52.772;-3.890;2023-07-09T08:38:43;26.50;99.90
25436;DHT22;13363;52.772;-3.890;2023-07-09T08:48:48;25.40;99.90
25436;DHT22;13363;52.772;-3.890;2023-07-09T08:53:57;24.40;99.90
25436;DHT22;13363;52.772;-3.890;2023-07-09T08:56:25;23.90;99.90
25436;DHT22;13363;52.772;-3.890;2023-07-09T08:58:57;23.00;99.90
25436;DHT22;13363;52.772;-3.890;2023-07-09T09:01:47;22.40;99.90
25436;DHT22;13363;52.772;-3.890;2023-07-09T09:04:29;21.80;99.90
25436;DHT22;13363;52.772;-3.890;2023-07-09T09:09:41;21.70;99.90
25436;DHT22;13363;52.772;-3.890;2023-07-09T09:13:12;21.70;99.90
25436;DHT22;13363;52.772;-3.890;2023-07-09T09:15:30;21.70;99.90
25436;DHT22;13363;52.772;-3.890;2023-07-09T09:18:27;22.00;99.90
25436;DHT22;13363;52.772;-3.890;2023-07-09T09:21:45;22.20;99.90
25436;DHT22;13363;52.772;-3.890;2023-07-09T09:24:31;23.30;99.90
25436;DHT22;13363;52.772;-3.890;2023-07-09T09:27:05;23.30;99.90
25436;DHT22;13363;52.772;-3.890;2023-07-09T09:29:41;23.40;99.90
25436;DHT22;13363;52.772;-3.890;2023-07-09T09:32:28;23.60;99.90
25436;DHT22;13363;52.772;-3.890;2023-07-09T09:35:10;22.30;99.90
25436;DHT22;13363;52.772;-3.890;2023-07-09T09:37:57;22.30;99.90
25436;DHT22;13363;52.772;-3.890;2023-07-09T09:40:34;22.40;99.90
25436;DHT22;13363;52.772;-3.890;2023-07-09T09:43:31;22.50;99.90
25436;DHT22;13363;52.772;-3.890;2023-07-09T09:46:05;22.40;99.90
25436;DHT22;13363;52.772;-3.890;2023-07-09T09:48:39;21.80;99.90
25436;DHT22;13363;52.772;-3.890;2023-07-09T09:51:13;21.60;99.90
25436;DHT22;13363;52.772;-3.890;2023-07-09T09:54:07;21.90;99.90
25436;DHT22;13363;52.772;-3.890;2023-07-09T09:56:47;21.90;99.90
25436;DHT22;13363;52.772;-3.890;2023-07-09T09:59:27;22.40;99.90
25436;DHT22;13363;52.772;-3.890;2023-07-09T10:02:02;22.40;99.90
25436;DHT22;13363;52.772;-3.890;2023-07-09T10:04:30;22.40;99.90
25436;DHT22;13363;52.772;-3.890;2023-07-09T10:06:58;22.10;99.90
25436;DHT22;13363;52.772;-3.890;2023-07-09T10:12:13;21.80;99.90
25436;DHT22;13363;52.772;-3.890;2023-07-09T10:33:13;24.30;99.90
25436;DHT22;13363;52.772;-3.890;2023-07-09T10:38:39;25.00;99.90
25436;DHT22;13363;52.772;-3.890;2023-07-09T10:41:12;25.00;99.90
25436;DHT22;13363;52.772;-3.890;2023-07-09T10:44:16;25.10;99.90
25436;DHT22;13363;52.772;-3.890;2023-07-09T10:46:55;24.90;99.90
25436;DHT22;13363;52.772;-3.890;2023-07-09T10:49:37;24.40;99.90
25436;DHT22;13363;52.772;-3.890;2023-07-09T10:52:13;24.10;99.90
25436;DHT22;13363;52.772;-3.890;2023-07-09T10:55:21;23.90;99.90
25436;DHT22;13363;52.772;-3.890;2023-07-09T11:00:21;21.90;99.90
25436;DHT22;13363;52.772;-3.890;2023-07-09T11:03:00;22.90;99.90
25436;DHT22;13363;52.772;-3.890;2023-07-09T11:05:27;22.60;99.90
25436;DHT22;13363;52.772;-3.890;2023-07-09T11:08:06;22.00;99.90
25436;DHT22;13363;52.772;-3.890;2023-07-09T11:10:39;22.00;99.90
25436;DHT22;13363;52.772;-3.890;2023-07-09T11:13:16;22.10;99.90
25436;DHT22;13363;52.772;-3.890;2023-07-09T11:15:46;22.20;99.90
25436;DHT22;13363;52.772;-3.890;2023-07-09T11:18:25;22.20;99.90
25436;DHT22;13363;52.772;-3.890;2023-07-09T11:21:04;22.20;99.90
25436;DHT22;13363;52.772;-3.890;2023-07-09T11:23:43;22.20;99.90
25436;DHT22;13363;52.772;-3.890;2023-07-09T11:26:14;22.20;99.90
25436;DHT22;13363;52.772;-3.890;2023-07-09T11:28:52;22.40;99.90
25436;DHT22;13363;52.772;-3.890;2023-07-09T11:31:31;21.50;99.90
25436;DHT22;13363;52.772;-3.890;2023-07-09T11:34:06;21.50;99.90
25436;DHT22;13363;52.772;-3.890;2023-07-09T11:36:34;21.00;99.90
25436;DHT22;13363;52.772;-3.890;2023-07-09T11:39:02;21.50;99.90
25436;DHT22;13363;52.772;-3.890;2023-07-09T11:44:10;21.20;99.90
25436;DHT22;13363;52.772;-3.890;2023-07-09T11:46:44;21.20;99.90
25436;DHT22;13363;52.772;-3.890;2023-07-09T11:51:46;21.10;99.90
25436;DHT22;13363;52.772;-3.890;2023-07-09T11:54:15;21.10;99.90
25436;DHT22;13363;52.772;-3.890;2023-07-09T11:56:41;21.00;99.90
25436;DHT22;13363;52.772;-3.890;2023-07-09T11:59:11;20.90;99.90
25436;DHT22;13363;52.772;-3.890;2023-07-09T12:01:43;20.90;99.90
25436;DHT22;13363;52.772;-3.890;2023-07-09T12:04:25;20.50;99.90
25436;DHT22;13363;52.772;-3.890;2023-07-09T12:06:56;20.40;99.90
25436;DHT22;13363;52.772;-3.890;2023-07-09T12:09:23;20.10;99.90
25436;DHT22;13363;52.772;-3.890;2023-07-09T12:11:51;20.20;99.90
25436;DHT22;13363;52.772;-3.890;2023-07-09T12:14:20;20.50;99.90
25436;DHT22;13363;52.772;-3.890;2023-07-09T12:16:51;21.00;99.90
25436;DHT22;13363;52.772;-3.890;2023-07-09T12:19:19;21.30;99.90
25436;DHT22;13363;52.772;-3.890;2023-07-09T12:21:49;21.50;99.90
25436;DHT22;13363;52.772;-3.890;2023-07-09T12:24:25;21.60;99.90
25436;DHT22;13363;52.772;-3.890;2023-07-09T12:26:56;21.50;99.90
25436;DHT22;13363;52.772;-3.890;2023-07-09T12:29:34;21.60;99.90
25436;DHT22;13363;52.772;-3.890;2023-07-09T12:32:05;21.50;99.90
25436;DHT22;13363;52.772;-3.890;2023-07-09T12:34:35;21.60;99.90
25436;DHT22;13363;52.772;-3.890;2023-07-09T12:37:01;21.30;99.90
25436;DHT22;13363;52.772;-3.890;2023-07-09T12:39:29;21.10;99.90
25436;DHT22;13363;52.772;-3.890;2023-07-09T12:42:00;21.30;99.90
25436;DHT22;13363;52.772;-3.890;2023-07-09T12:44:35;21.30;99.90
25436;DHT22;13363;52.772;-3.890;2023-07-09T12:47:02;21.40;99.90
25436;DHT22;13363;52.772;-3.890;2023-07-09T12:49:30;21.60;99.90
25436;DHT22;13363;52.772;-3.890;2023-07-09T12:52:20;21.70;99.90
25436;DHT22;13363;52.772;-3.890;2023-07-09T12:55:00;21.70;99.90
25436;DHT22;13363;52.772;-3.890;2023-07-09T12:57:28;21.70;99.90
25436;DHT22;13363;52.772;-3.890;2023-07-09T12:59:55;21.70;99.90
25436;DHT22;13363;52.772;-3.890;2023-07-09T13:02:24;21.60;99.90
25436;DHT22;13363;52.772;-3.890;2023-07-09T13:05:02;21.60;99.90
25436;DHT22;13363;52.772;-3.890;2023-07-09T13:07:39;20.90;99.90
25436;DHT22;13363;52.772;-3.890;2023-07-09T13:10:18;20.80;99.90
25436;DHT22;13363;52.772;-3.890;2023-07-09T13:12:46;20.80;99.90
25436;DHT22;13363;52.772;-3.890;2023-07-09T13:16:00;20.90;99.90
25436;DHT22;13363;52.772;-3.890;2023-07-09T13:18:27;21.00;99.90
25436;DHT22;13363;52.772;-3.890;2023-07-09T13:20:55;21.00;99.90
25436;DHT22;13363;52.772;-3.890;2023-07-09T13:23:27;20.90;99.90
25436;DHT22;13363;52.772;-3.890;2023-07-09T13:25:54;21.00;99.90
25436;DHT22;13363;52.772;-3.890;2023-07-09T13:30:53;20.50;99.90
25436;DHT22;13363;52.772;-3.890;2023-07-09T13:38:20;18.80;99.90
25436;DHT22;13363;52.772;-3.890;2023-07-09T13:40:53;18.40;99.90
25436;DHT22;13363;52.772;-3.890;2023-07-09T13:43:33;18.00;99.90
25436;DHT22;13363;52.772;-3.890;2023-07-09T13:46:00;18.00;99.90
25436;DHT22;13363;52.772;-3.890;2023-07-09T13:48:30;17.90;99.90
25436;DHT22;13363;52.772;-3.890;2023-07-09T13:50:56;18.20;99.90
25436;DHT22;13363;52.772;-3.890;2023-07-09T13:53:26;18.20;99.90
25436;DHT22;13363;52.772;-3.890;2023-07-09T13:55:53;18.20;99.90
25436;DHT22;13363;52.772;-3.890;2023-07-09T13:58:21;18.30;99.90
25436;DHT22;13363;52.772;-3.890;2023-07-09T14:00:49;18.30;99.90
25436;DHT22;13363;52.772;-3.890;2023-07-09T14:03:22;18.90;99.90
25436;DHT22;13363;52.772;-3.890;2023-07-09T14:05:49;18.90;99.90
25436;DHT22;13363;52.772;-3.890;2023-07-09T14:08:16;19.10;99.90
25436;DHT22;13363;52.772;-3.890;2023-07-09T14:10:43;19.20;99.90
25436;DHT22;13363;52.772;-3.890;2023-07-09T14:13:14;19.50;99.90
25436;DHT22;13363;52.772;-3.890;2023-07-09T14:18:16;19.60;99.90
25436;DHT22;13363;52.772;-3.890;2023-07-09T14:20:42;19.50;99.90
25436;DHT22;13363;52.772;-3.890;2023-07-09T14:23:11;19.70;99.90
25436;DHT22;13363;52.772;-3.890;2023-07-09T14:28:20;19.40;99.90
25436;DHT22;13363;52.772;-3.890;2023-07-09T14:30:48;19.40;99.90
25436;DHT22;13363;52.772;-3.890;2023-07-09T14:33:17;19.70;99.90
25436;DHT22;13363;52.772;-3.890;2023-07-09T14:35:44;20.30;99.90
25436;DHT22;13363;52.772;-3.890;2023-07-09T14:38:24;20.60;99.90
25436;DHT22;13363;52.772;-3.890;2023-07-09T14:40:52;20.60;99.90
25436;DHT22;13363;52.772;-3.890;2023-07-09T14:43:20;20.70;99.90
25436;DHT22;13363;52.772;-3.890;2023-07-09T14:45:46;20.90;99.90
25436;DHT22;13363;52.772;-3.890;2023-07-09T14:48:14;20.80;99.90
25436;DHT22;13363;52.772;-3.890;2023-07-09T14:50:41;20.70;99.90
25436;DHT22;13363;52.772;-3.890;2023-07-09T14:53:15;20.70;99.90
25436;DHT22;13363;52.772;-3.890;2023-07-09T15:01:37;20.30;99.90
25436;DHT22;13363;52.772;-3.890;2023-07-09T15:06:52;20.20;99.90
25436;DHT22;13363;52.772;-3.890;2023-07-09T15:09:27;19.60;99.90
25436;DHT22;13363;52.772;-3.890;2023-07-09T15:12:02;19.60;99.90
25436;DHT22;13363;52.772;-3.890;2023-07-09T15:19:22;18.40;99.90
25436;DHT22;13363;52.772;-3.890;2023-07-09T15:21:49;18.30;99.90
25436;DHT22;13363;52.772;-3.890;2023-07-09T15:24:27;18.20;99.90
25436;DHT22;13363;52.772;-3.890;2023-07-09T15:26:55;18.10;99.90
25436;DHT22;13363;52.772;-3.890;2023-07-09T15:29:22;18.10;99.90
25436;DHT22;13363;52.772;-3.890;2023-07-09T16:37:07;18.70;99.90
25436;DHT22;13363;52.772;-3.890;2023-07-09T16:39:40;18.70;99.90
25436;DHT22;13363;52.772;-3.890;2023-07-09T16:42:14;18.60;99.90
25436;DHT22;13363;52.772;-3.890;2023-07-09T16:47:19;18.40;99.90
25436;DHT22;13363;52.772;-3.890;2023-07-09T16:49:46;18.40;99.90
25436;DHT22;13363;52.772;-3.890;2023-07-09T16:52:21;18.40;99.90
25436;DHT22;13363;52.772;-3.890;2023-07-09T16:54:48;18.30;99.90
25436;DHT22;13363;52.772;-3.890;2023-07-09T16:57:16;18.20;99.90
25436;DHT22;13363;52.772;-3.890;2023-07-09T16:59:43;18.30;99.90
25436;DHT22;13363;52.772;-3.890;2023-07-09T17:02:27;18.30;99.90
25436;DHT22;13363;52.772;-3.890;2023-07-09T17:04:55;18.80;99.90
25436;DHT22;13363;52.772;-3.890;2023-07-09T17:14:40;17.90;99.90
25436;DHT22;13363;52.772;-3.890;2023-07-09T17:17:12;17.90;99.90
25436;DHT22;13363;52.772;-3.890;2023-07-09T17:22:22;17.80;99.90
25436;DHT22;13363;52.772;-3.890;2023-07-09T17:27:15;17.80;99.90
25436;DHT22;13363;52.772;-3.890;2023-07-09T17:29:42;17.60;99.90
25436;DHT22;13363;52.772;-3.890;2023-07-09T17:34:37;17.50;99.90
25436;DHT22;13363;52.772;-3.890;2023-07-09T17:37:04;17.50;99.90
25436;DHT22;13363;52.772;-3.890;2023-07-09T17:39:30;17.60;99.90
25436;DHT22;13363;52.772;-3.890;2023-07-09T17:41:56;17.70;99.90
25436;DHT22;13363;52.772;-3.890;2023-07-09T17:44:23;17.80;99.90
25436;DHT22;13363;52.772;-3.890;2023-07-09T17:46:52;17.80;99.90
25436;DHT22;13363;52.772;-3.890;2023-07-09T17:49:27;17.90;99.90
25436;DHT22;13363;52.772;-3.890;2023-07-09T17:51:54;17.90;99.90
25436;DHT22;13363;52.772;-3.890;2023-07-09T17:54:22;18.00;99.90
25436;DHT22;13363;52.772;-3.890;2023-07-09T17:56:49;18.10;99.90
25436;DHT22;13363;52.772;-3.890;2023-07-09T17:59:24;17.90;99.90
25436;DHT22;13363;52.772;-3.890;2023-07-09T18:12:27;18.50;99.90
25436;DHT22;13363;52.772;-3.890;2023-07-09T18:14:56;18.70;99.90
25436;DHT22;13363;52.772;-3.890;2023-07-09T18:17:31;18.80;99.90
25436;DHT22;13363;52.772;-3.890;2023-07-09T18:27:22;18.80;99.90
25436;DHT22;13363;52.772;-3.890;2023-07-09T18:29:50;18.70;99.90
25436;DHT22;13363;52.772;-3.890;2023-07-09T18:32:19;18.60;99.90
25436;DHT22;13363;52.772;-3.890;2023-07-09T18:34:46;18.60;99.90
25436;DHT22;13363;52.772;-3.890;2023-07-09T18:37:15;18.60;99.90
25436;DHT22;13363;52.772;-3.890;2023-07-09T18:42:16;18.50;99.90
25436;DHT22;13363;52.772;-3.890;2023-07-09T18:47:10;18.30;99.90
25436;DHT22;13363;52.772;-3.890;2023-07-09T18:52:25;18.00;99.90
25436;DHT22;13363;52.772;-3.890;2023-07-09T18:54:53;17.90;99.90
25436;DHT22;13363;52.772;-3.890;2023-07-09T18:57:19;17.90;99.90
25436;DHT22;13363;52.772;-3.890;2023-07-09T18:59:46;17.90;99.90
25436;DHT22;13363;52.772;-3.890;2023-07-09T19:04:51;17.90;99.90
25436;DHT22;13363;52.772;-3.890;2023-07-09T19:07:21;17.90;99.90
25436;DHT22;13363;52.772;-3.890;2023-07-09T19:09:47;17.90;99.90
25436;DHT22;13363;52.772;-3.890;2023-07-09T19:12:15;17.80;99.90
25436;DHT22;13363;52.772;-3.890;2023-07-09T19:14:41;17.70;99.90
25436;DHT22;13363;52.772;-3.890;2023-07-09T19:17:28;17.50;99.90
25436;DHT22;13363;52.772;-3.890;2023-07-09T19:19:54;17.50;99.90
25436;DHT22;13363;52.772;-3.890;2023-07-09T19:22:20;17.40;99.90
25436;DHT22;13363;52.772;-3.890;2023-07-09T19:24:46;17.30;99.90
25436;DHT22;13363;52.772;-3.890;2023-07-09T19:27:13;17.30;99.90
25436;DHT22;13363;52.772;-3.890;2023-07-09T19:29:39;17.30;99.90
25436;DHT22;13363;52.772;-3.890;2023-07-09T19:32:22;17.00;99.90
25436;DHT22;13363;52.772;-3.890;2023-07-09T19:37:22;16.90;99.90
25436;DHT22;13363;52.772;-3.890;2023-07-09T19:42:20;16.70;99.90
25436;DHT22;13363;52.772;-3.890;2023-07-09T19:47:34;16.60;99.90
25436;DHT22;13363;52.772;-3.890;2023-07-09T19:50:08;16.40;99.90
25436;DHT22;13363;52.772;-3.890;2023-07-09T19:52:36;16.40;99.90
25436;DHT22;13363;52.772;-3.890;2023-07-09T19:55:40;16.30;99.90
25436;DHT22;13363;52.772;-3.890;2023-07-09T20:00:27;16.10;99.90
25436;DHT22;13363;52.772;-3.890;2023-07-09T20:05:26;16.00;99.90
25436;DHT22;13363;52.772;-3.890;2023-07-09T20:07:54;16.00;99.90
25436;DHT22;13363;52.772;-3.890;2023-07-09T20:12:50;15.90;99.90
25436;DHT22;13363;52.772;-3.890;2023-07-09T20:15:19;15.90;99.90
25436;DHT22;13363;52.772;-3.890;2023-07-09T20:17:46;15.80;99.90
25436;DHT22;13363;52.772;-3.890;2023-07-09T20:20:13;15.80;99.90
25436;DHT22;13363;52.772;-3.890;2023-07-09T20:22:39;15.80;99.90
25436;DHT22;13363;52.772;-3.890;2023-07-09T20:30:05;15.70;99.90
25436;DHT22;13363;52.772;-3.890;2023-07-09T20:34:59;15.50;99.90
25436;DHT22;13363;52.772;-3.890;2023-07-09T20:37:25;15.50;99.90
25436;DHT22;13363;52.772;-3.890;2023-07-09T20:39:51;15.40;99.90
25436;DHT22;13363;52.772;-3.890;2023-07-09T20:44:43;15.30;99.90
25436;DHT22;13363;52.772;-3.890;2023-07-09T20:47:16;15.30;99.90
25436;DHT22;13363;52.772;-3.890;2023-07-09T20:49:43;15.30;99.90
25436;DHT22;13363;52.772;-3.890;2023-07-09T20:54:42;15.30;99.90
25436;DHT22;13363;52.772;-3.890;2023-07-09T20:57:18;15.30;99.90
25436;DHT22;13363;52.772;-3.890;2023-07-09T21:02:19;15.50;99.90
25436;DHT22;13363;52.772;-3.890;2023-07-09T21:04:45;15.40;99.90
25436;DHT22;13363;52.772;-3.890;2023-07-09T21:07:11;15.50;99.90
25436;DHT22;13363;52.772;-3.890;2023-07-09T21:09:38;15.50;99.90
25436;DHT22;13363;52.772;-3.890;2023-07-09T21:12:08;15.50;99.90
25436;DHT22;13363;52.772;-3.890;2023-07-09T21:14:35;15.50;99.90
25436;DHT22;13363;52.772;-3.890;2023-07-09T21:17:01;15.50;99.90
25436;DHT22;13363;52.772;-3.890;2023-07-09T21:24:23;15.60;99.90
25436;DHT22;13363;52.772;-3.890;2023-07-09T21:27:03;15.60;99.90
25436;DHT22;13363;52.772;-3.890;2023-07-09T21:29:34;15.60;99.90
25436;DHT22;13363;52.772;-3.890;2023-07-09T21:32:10;15.50;99.90
25436;DHT22;13363;52.772;-3.890;2023-07-09T21:34:47;15.50;99.90
25436;DHT22;13363;52.772;-3.890;2023-07-09T21:37:23;15.40;99.90
25436;DHT22;13363;52.772;-3.890;2023-07-09T21:39:53;15.40;99.90
25436;DHT22;13363;52.772;-3.890;2023-07-09T21:42:19;15.40;99.90
25436;DHT22;13363;52.772;-3.890;2023-07-09T21:44:45;15.40;99.90
25436;DHT22;13363;52.772;-3.890;2023-07-09T21:47:17;15.30;99.90
25436;DHT22;13363;52.772;-3.890;2023-07-09T21:49:46;15.20;99.90